• Join FlightAware (Why Join?)
  • Login
  • US Flag 
11:13PM EST


 

Airport Tracker/Info


-or-


 

Live Flight TrackerFlight Track Log ✈ N6GD ✈ 18-Jul-2014 ✈ KOPF - MDPC / PUJ

Flight Track Log - Related Links

Times and Time Zones

All times are in EDT time to prevent confusion due to time zone crossing. See the N6GD flight status page for this flight to view local times or setup timezone preferences in your user account.

Time Position Orientation Groundspeed Altitude Reporting Facility
EDT Latitude Longitude Course Direction KTS MPH feet Rate Location/Type
10:10AM 25.9131 -80.2900 284° West 154 177 300  Level Miami Center
10:11AM 25.9225 -80.3308 284° West 178 205 1,900 2,280 Climbing Miami Center
10:11AM 25.9319 -80.3564 292° West 195 224 3,100 2,400 Climbing Miami Center
10:12AM 25.9444 -80.3850 296° West 190 219 4,400 2,100 Climbing Miami Center
10:12AM 25.9556 -80.4139 293° West 218 251 5,300 1,920 Climbing Miami Center
10:13AM 25.9836 -80.4383 322° Northwest 245 282 6,400 2,400 Climbing Miami Center
10:13AM 26.0111 -80.4297 16° North 284 327 7,500 2,700 Climbing Miami Center
10:14AM 26.0317 -80.3825 64° Northeast 280 322 9,200 2,700 Climbing Miami Center
10:14AM 26.0353 -80.3483 83° East 294 338 10,200 2,220 Climbing Miami Center
10:15AM 26.0389 -80.2903 86° East 296 341 11,500 1,740 Climbing Miami Center
10:16AM 26.0450 -80.1894 86° East 322 371 13,400 1,980 Climbing Miami Center
10:17AM 26.0533 -80.0608 86° East 345 397 15,600 1,980 Climbing Miami Center
10:18AM 26.0467 -79.9508 94° East 354 407 17,600 1,740 Climbing Miami Center
10:19AM 26.0106 -79.8472 111° Southeast 358 412 19,200 1,380 Climbing Miami Center
10:20AM 25.9614 -79.7447 118° Southeast 373 429 20,500 1,320 Climbing Miami Center
10:21AM 25.9103 -79.6400 118° Southeast 383 441 22,000 1,320 Climbing Miami Center
10:22AM 25.8597 -79.5314 117° Southeast 392 451 23,300 1,440 Climbing Miami Center
10:23AM 25.7961 -79.4008 118° Southeast 400 460 25,000 1,440 Climbing Miami Center
10:24AM 25.7428 -79.2897 118° Southeast 404 465 26,300 1,440 Climbing Miami Center
10:26AM 25.6875 -79.1794 119° Southeast 407 468 28,000 1,740 Climbing Miami Center
10:27AM 25.6364 -79.0722 118° Southeast 396 456 30,000 1,740 Climbing Miami Center
10:28AM 25.5856 -78.9667 118° Southeast 391 450 31,700 1,680 Climbing Miami Center
10:29AM 25.5292 -78.8497 118° Southeast 379 436 33,500 1,380 Climbing Miami Center
10:30AM 25.4803 -78.7467 118° Southeast 379 436 34,600 1,140 Climbing Miami Center
10:31AM 25.4208 -78.6339 120° Southeast 380 437 35,900 1,020 Climbing Miami Center
10:32AM 25.3683 -78.5303 119° Southeast 387 445 36,800 480 Climbing Miami Center
10:33AM 25.3147 -78.4250 119° Southeast 389 448 37,000 60 Climbing Miami Center
10:34AM 25.2508 -78.3011 120° Southeast 419 482 37,000  Level Miami Center
10:35AM 25.1911 -78.1808 119° Southeast 445 512 37,000  Level Miami Center
10:36AM 25.1300 -78.0564 118° Southeast 461 531 37,000  Level Miami Center
10:37AM 25.0608 -77.9189 119° Southeast 464 534 37,000  Level Miami Center
10:38AM 24.9983 -77.7956 119° Southeast 463 533 37,000  Level Miami Center
10:39AM 24.9328 -77.6633 119° Southeast 461 531 37,000  Level Miami Center
10:40AM 24.8669 -77.5392 120° Southeast 465 535 37,000  Level Miami Center
10:41AM 24.8069 -77.4161 118° Southeast 469 540 37,000  Level Miami Center
10:42AM 24.7400 -77.2825 119° Southeast 459 528 37,000  Level Miami Center
10:43AM 24.6786 -77.1594 119° Southeast 458 527 37,000  Level Miami Center
10:44AM 24.6114 -77.0261 119° Southeast 457 526 37,000  Level Miami Center
10:45AM 24.5497 -76.9050 119° Southeast 457 526 37,000  Level Miami Center
10:46AM 24.4875 -76.7828 119° Southeast 459 528 37,000  Level Miami Center
10:47AM 24.4206 -76.6478 119° Southeast 457 526 37,000  Level Miami Center
10:48AM 24.3561 -76.5217 119° Southeast 457 526 37,000  Level Miami Center
10:49AM 24.2925 -76.3992 120° Southeast 462 532 37,000  Level Miami Center
10:50AM 24.2311 -76.2767 119° Southeast 460 529 37,000  Level Miami Center
10:51AM 24.1667 -76.1547 120° Southeast 460 529 37,000  Level Miami Center
10:52AM 24.1039 -76.0331 119° Southeast 459 528 37,000  Level Miami Center
10:54AM 24.0406 -75.9114 120° Southeast 458 527 37,000  Level Miami Center
10:55AM 23.9653 -75.7672 120° Southeast 455 524 37,000  Level Miami Center
10:56AM 23.9028 -75.6456 119° Southeast 454 522 37,000  Level Miami Center
10:57AM 23.8394 -75.5256 120° Southeast 453 521 37,000  Level Miami Center
10:58AM 23.7758 -75.4061 120° Southeast 451 519 37,000  Level Miami Center
10:59AM 23.7142 -75.2856 119° Southeast 451 519 37,000  Level Miami Center
11:00AM 23.6500 -75.1672 121° Southeast 451 519 37,000  Level Miami Center
11:01AM 23.5875 -75.0475 120° Southeast 451 519 37,000  Level Miami Center
11:02AM 23.5122 -74.9072 120° Southeast 449 517 37,000  Level Miami Center
11:03AM 23.4497 -74.7886 120° Southeast 449 517 37,000  Level Miami Center
11:04AM 23.3850 -74.6711 121° Southeast 450 518 37,000  Level Miami Center
11:05AM 23.3236 -74.5547 120° Southeast 447 514 37,000  Level Miami Center
11:06AM 23.2611 -74.4386 120° Southeast 444 511 37,000  Level Miami Center
11:07AM 23.2000 -74.3225 120° Southeast 443 510 37,000  Level Miami Center
11:08AM 23.1264 -74.1842 120° Southeast 441 507 37,000  Level Miami Center
11:09AM 23.0642 -74.0681 120° Southeast 441 507 37,000  Level Miami Center
11:10AM 23.0006 -73.9533 121° Southeast 441 507 37,000  Level Miami Center
11:11AM 22.9414 -73.8364 119° Southeast 441 507 37,000  Level Miami Center
11:12AM 22.8797 -73.7214 120° Southeast 441 507 37,000  Level Miami Center
11:13AM 22.8172 -73.6067 121° Southeast 441 507 37,000  Level Miami Center
11:14AM 22.7419 -73.4689 121° Southeast 441 507 37,000  Level Miami Center
11:15AM 22.6803 -73.3547 120° Southeast 441 507 37,000  Level Miami Center
11:16AM 22.6172 -73.2406 121° Southeast 441 507 37,000  Level Miami Center
11:17AM 22.5556 -73.1256 120° Southeast 441 507 37,000  Level Miami Center
11:18AM 22.4911 -73.0108 121° Southeast 444 511 37,000  Level Miami Center
11:19AM 22.4153 -72.8736 121° Southeast 444 511 37,000 -480 Level Miami Center
11:21AM 22.3528 -72.7572 120° Southeast 444 511 36,000 -1,020 Descending Miami Center
11:22AM 22.2881 -72.6417 121° Southeast 444 511 35,000 -540 Descending Miami Center
11:23AM 22.2231 -72.5261 121° Southeast 445 512 35,000  Level Miami Center
11:24AM 22.1606 -72.4119 121° Southeast 445 512 35,000  Level Miami Center
11:25AM 22.0958 -72.2964 121° Southeast 445 512 35,000  Level Miami Center
11:26AM 22.0186 -72.1572 121° Southeast 447 514 35,000  Level Miami Center
11:27AM 21.9531 -72.0408 121° Southeast 449 517 35,000  Level Miami Center
11:28AM 21.8869 -71.9228 121° Southeast 454 522 35,000  Level Miami Center
11:29AM 21.8206 -71.8050 121° Southeast 456 525 35,000  Level Miami Center
11:30AM 21.7544 -71.6878 121° Southeast 456 525 35,000  Level Miami Center
11:31AM 21.6892 -71.5711 121° Southeast 456 525 35,000  Level Miami Center
11:32AM 21.6097 -71.4319 122° Southeast 456 525 35,000  Level Miami Center
11:33AM 21.5447 -71.3167 121° Southeast 456 525 35,000  Level Miami Center
11:34AM 21.4719 -71.1883 121° Southeast 455 524 35,000  Level Miami Center
11:36AM 21.3128 -71.0064 133° Southeast 434 499 35,000  Level Miami Center
11:37AM 21.2200 -70.9150 137° Southeast 447 514 35,000  Level Miami Center
11:38AM 21.1269 -70.8236 138° Southeast 448 516 35,000  Level Miami Center
11:39AM 21.0336 -70.7317 137° Southeast 450 518 35,000  Level Miami Center
11:40AM 20.9203 -70.6217 138° Southeast 451 519 35,000  Level Miami Center
11:41AM 20.8264 -70.5292 137° Southeast 455 524 35,000  Level Miami Center
11:42AM 20.7325 -70.4378 138° Southeast 455 524 35,000  Level Miami Center
11:43AM 20.6389 -70.3458 137° Southeast 455 524 35,000  Level Miami Center
11:44AM 20.5453 -70.2544 138° Southeast 455 524 35,000 -720 Level Miami Center
11:45AM 20.4514 -70.1622 137° Southeast 455 524 33,600 -1,620 Descending Miami Center
11:46AM 20.3394 -70.0544 138° Southeast 455 524 31,700 -1,680 Descending Miami Center
11:47AM 20.2483 -69.9661 138° Southeast 451 519 30,100 -1,620 Descending Miami Center
11:48AM 20.1567 -69.8753 137° Southeast 449 517 28,400 -1,500 Descending Miami Center
11:49AM 20.0617 -69.7831 138° Southeast 453 521 27,100 -1,260 Descending Miami Center
11:51AM 19.9652 -69.6985 137° Southeast  Level FlightAware Approximate
11:58AM 19.3978 -69.1477 137° Southeast  Level FlightAware Approximate
11:59AM 19.3178 -69.0676 137° Southeast  Level FlightAware Approximate
12:00PM 19.2377 -68.9876 137° Southeast  Level FlightAware Approximate
12:01PM 19.1576 -68.9076 137° Southeast  Level FlightAware Approximate
12:02PM 19.0777 -68.8276 137° Southeast  Level FlightAware Approximate
12:03PM 18.9960 -68.7497 140° Southeast  Level FlightAware Approximate
12:04PM 18.9122 -68.6742 140° Southeast  Level FlightAware Approximate
12:05PM 18.8301 -68.5968 137° Southeast  Level FlightAware Approximate
12:06PM 18.7502 -68.5169 137° Southeast  Level FlightAware Approximate
12:07PM 18.6687 -68.4390 145° Southeast  Level FlightAware Approximate
12:08PM 18.5880 -68.3617 128° Southeast  Level FlightAware Approximate
12:09PM 18.5674 -68.3634 128° Southeast  Level Estimated
12:10PM 18.5674 -68.3634 128° Southeast  Level Estimated
12:11PM 18.5674 -68.3634 128° Southeast  Level Estimated
12:12PM 18.5674 -68.3634 128° Southeast  Level Estimated
12:13PM 18.5674 -68.3634 128° Southeast  Level Estimated
12:14PM 18.5674 -68.3634 128° Southeast  Level Estimated
12:15PM 18.5674 -68.3634 128° Southeast  Level Estimated
12:16PM 18.5674 -68.3634 128° Southeast  Level Estimated
12:17PM 18.5674 -68.3634 128° Southeast  Level Estimated
12:18PM 18.5674 -68.3634 128° Southeast  Level Estimated
12:19PM 18.5674 -68.3634 128° Southeast  Level Estimated
12:20PM 18.5674 -68.3634 128° Southeast  Level Estimated